sensor_id;sensor_type;location;lat;lon;timestamp;temperature;humidity
23347;DHT22;36852;45.466;11.066;2023-02-02T00:01:56;7.00;99.90
23347;DHT22;36852;45.466;11.066;2023-02-02T00:04:26;7.00;99.90
23347;DHT22;36852;45.466;11.066;2023-02-02T00:06:54;6.90;99.90
23347;DHT22;36852;45.466;11.066;2023-02-02T00:09:30;6.90;99.90
23347;DHT22;36852;45.466;11.066;2023-02-02T00:11:59;6.90;99.90
23347;DHT22;36852;45.466;11.066;2023-02-02T00:14:28;6.80;99.90
23347;DHT22;36852;45.466;11.066;2023-02-02T00:16:56;6.80;99.90
23347;DHT22;36852;45.466;11.066;2023-02-02T00:19:27;6.80;99.90
23347;DHT22;36852;45.466;11.066;2023-02-02T00:21:55;6.80;99.90
23347;DHT22;36852;45.466;11.066;2023-02-02T00:24:24;6.80;99.90
23347;DHT22;36852;45.466;11.066;2023-02-02T00:26:55;6.90;99.90
23347;DHT22;36852;45.466;11.066;2023-02-02T00:29:26;6.90;99.90
23347;DHT22;36852;45.466;11.066;2023-02-02T00:31:54;6.80;99.90
23347;DHT22;36852;45.466;11.066;2023-02-02T00:34:22;6.80;99.90
23347;DHT22;36852;45.466;11.066;2023-02-02T00:37:04;6.80;99.90
23347;DHT22;36852;45.466;11.066;2023-02-02T00:39:32;6.80;99.90
23347;DHT22;36852;45.466;11.066;2023-02-02T00:42:00;6.80;99.90
23347;DHT22;36852;45.466;11.066;2023-02-02T00:44:37;6.80;99.90
23347;DHT22;36852;45.466;11.066;2023-02-02T00:47:32;6.70;99.90
23347;DHT22;36852;45.466;11.066;2023-02-02T00:50:00;6.70;99.90
23347;DHT22;36852;45.466;11.066;2023-02-02T00:52:27;6.80;99.90
23347;DHT22;36852;45.466;11.066;2023-02-02T00:54:56;6.80;99.90
23347;DHT22;36852;45.466;11.066;2023-02-02T00:57:24;6.70;99.90
23347;DHT22;36852;45.466;11.066;2023-02-02T00:59:52;6.80;99.90
23347;DHT22;36852;45.466;11.066;2023-02-02T01:02:20;6.70;99.90
23347;DHT22;36852;45.466;11.066;2023-02-02T01:04:47;6.70;99.90
23347;DHT22;36852;45.466;11.066;2023-02-02T01:07:16;6.70;99.90
23347;DHT22;36852;45.466;11.066;2023-02-02T01:09:44;6.60;99.90
23347;DHT22;36852;45.466;11.066;2023-02-02T01:12:11;6.60;99.90
23347;DHT22;36852;45.466;11.066;2023-02-02T01:14:39;6.50;99.90
23347;DHT22;36852;45.466;11.066;2023-02-02T01:17:07;6.60;99.90
23347;DHT22;36852;45.466;11.066;2023-02-02T01:19:35;6.60;99.90
23347;DHT22;36852;45.466;11.066;2023-02-02T01:22:03;6.60;99.90
23347;DHT22;36852;45.466;11.066;2023-02-02T01:24:34;6.70;99.90
23347;DHT22;36852;45.466;11.066;2023-02-02T01:27:02;6.70;99.90
23347;DHT22;36852;45.466;11.066;2023-02-02T01:29:30;6.70;99.90
23347;DHT22;36852;45.466;11.066;2023-02-02T01:31:58;6.70;99.90
23347;DHT22;36852;45.466;11.066;2023-02-02T01:34:26;6.60;99.90
23347;DHT22;36852;45.466;11.066;2023-02-02T01:36:54;6.60;99.90
23347;DHT22;36852;45.466;11.066;2023-02-02T01:39:21;6.60;99.90
23347;DHT22;36852;45.466;11.066;2023-02-02T01:41:49;6.50;99.90
23347;DHT22;36852;45.466;11.066;2023-02-02T01:45:01;6.60;99.90
23347;DHT22;36852;45.466;11.066;2023-02-02T01:47:29;6.60;99.90
23347;DHT22;36852;45.466;11.066;2023-02-02T01:49:58;6.60;99.90
23347;DHT22;36852;45.466;11.066;2023-02-02T01:52:28;6.60;99.90
23347;DHT22;36852;45.466;11.066;2023-02-02T01:54:59;6.60;99.90
23347;DHT22;36852;45.466;11.066;2023-02-02T01:57:36;6.60;99.90
23347;DHT22;36852;45.466;11.066;2023-02-02T02:00:07;6.60;99.90
23347;DHT22;36852;45.466;11.066;2023-02-02T02:02:44;6.60;99.90
23347;DHT22;36852;45.466;11.066;2023-02-02T02:05:14;6.70;99.90
23347;DHT22;36852;45.466;11.066;2023-02-02T02:07:44;6.70;99.90
23347;DHT22;36852;45.466;11.066;2023-02-02T02:10:16;6.70;99.90
23347;DHT22;36852;45.466;11.066;2023-02-02T02:12:46;6.60;99.90
23347;DHT22;36852;45.466;11.066;2023-02-02T02:15:14;6.60;99.90
23347;DHT22;36852;45.466;11.066;2023-02-02T02:35:15;6.40;99.90
23347;DHT22;36852;45.466;11.066;2023-02-02T02:38:08;6.50;99.90
23347;DHT22;36852;45.466;11.066;2023-02-02T02:40:37;6.50;99.90
23347;DHT22;36852;45.466;11.066;2023-02-02T02:43:09;6.50;99.90
23347;DHT22;36852;45.466;11.066;2023-02-02T02:45:38;6.50;99.90
23347;DHT22;36852;45.466;11.066;2023-02-02T02:48:07;6.50;99.90
23347;DHT22;36852;45.466;11.066;2023-02-02T02:50:37;6.50;99.90
23347;DHT22;36852;45.466;11.066;2023-02-02T02:53:07;6.50;99.90
23347;DHT22;36852;45.466;11.066;2023-02-02T02:55:53;6.50;99.90
23347;DHT22;36852;45.466;11.066;2023-02-02T02:58:19;6.40;99.90
23347;DHT22;36852;45.466;11.066;2023-02-02T03:00:53;6.40;99.90
23347;DHT22;36852;45.466;11.066;2023-02-02T03:03:59;6.40;99.90
23347;DHT22;36852;45.466;11.066;2023-02-02T03:06:40;6.30;99.90
23347;DHT22;36852;45.466;11.066;2023-02-02T03:09:09;6.30;99.90
23347;DHT22;36852;45.466;11.066;2023-02-02T03:14:19;6.30;99.90
23347;DHT22;36852;45.466;11.066;2023-02-02T03:16:51;6.30;99.90
23347;DHT22;36852;45.466;11.066;2023-02-02T03:19:19;6.30;99.90
23347;DHT22;36852;45.466;11.066;2023-02-02T03:21:48;6.30;99.90
23347;DHT22;36852;45.466;11.066;2023-02-02T03:24:17;6.30;99.90
23347;DHT22;36852;45.466;11.066;2023-02-02T03:26:45;6.30;99.90
23347;DHT22;36852;45.466;11.066;2023-02-02T03:29:13;6.30;99.90
23347;DHT22;36852;45.466;11.066;2023-02-02T03:31:41;6.20;99.90
23347;DHT22;36852;45.466;11.066;2023-02-02T03:34:09;6.20;99.90
23347;DHT22;36852;45.466;11.066;2023-02-02T03:36:36;6.20;99.90
23347;DHT22;36852;45.466;11.066;2023-02-02T03:39:04;6.20;99.90
23347;DHT22;36852;45.466;11.066;2023-02-02T03:41:32;6.20;99.90
23347;DHT22;36852;45.466;11.066;2023-02-02T03:44:00;6.10;99.90
23347;DHT22;36852;45.466;11.066;2023-02-02T03:46:28;6.10;99.90
23347;DHT22;36852;45.466;11.066;2023-02-02T03:48:58;6.00;99.90
23347;DHT22;36852;45.466;11.066;2023-02-02T03:51:35;6.00;99.90
23347;DHT22;36852;45.466;11.066;2023-02-02T03:54:03;6.00;99.90
23347;DHT22;36852;45.466;11.066;2023-02-02T03:56:31;6.00;99.90
23347;DHT22;36852;45.466;11.066;2023-02-02T03:58:59;6.00;99.90
23347;DHT22;36852;45.466;11.066;2023-02-02T04:01:28;6.00;99.90
23347;DHT22;36852;45.466;11.066;2023-02-02T04:03:57;6.10;99.90
23347;DHT22;36852;45.466;11.066;2023-02-02T04:06:27;6.00;99.90
23347;DHT22;36852;45.466;11.066;2023-02-02T04:08:54;6.10;99.90
23347;DHT22;36852;45.466;11.066;2023-02-02T04:11:22;6.00;99.90
23347;DHT22;36852;45.466;11.066;2023-02-02T04:13:50;5.90;99.90
23347;DHT22;36852;45.466;11.066;2023-02-02T04:16:18;5.80;99.90
23347;DHT22;36852;45.466;11.066;2023-02-02T04:18:46;5.90;99.90
23347;DHT22;36852;45.466;11.066;2023-02-02T04:21:14;5.80;99.90
23347;DHT22;36852;45.466;11.066;2023-02-02T04:23:50;5.80;99.90
23347;DHT22;36852;45.466;11.066;2023-02-02T04:26:18;5.80;99.90
23347;DHT22;36852;45.466;11.066;2023-02-02T04:28:46;5.80;99.90
23347;DHT22;36852;45.466;11.066;2023-02-02T04:31:14;5.80;99.90
23347;DHT22;36852;45.466;11.066;2023-02-02T04:33:42;5.70;99.90
23347;DHT22;36852;45.466;11.066;2023-02-02T04:38:59;5.80;99.90
23347;DHT22;36852;45.466;11.066;2023-02-02T04:41:28;5.80;99.90
23347;DHT22;36852;45.466;11.066;2023-02-02T04:43:59;5.80;99.90
23347;DHT22;36852;45.466;11.066;2023-02-02T04:46:26;5.80;99.90
23347;DHT22;36852;45.466;11.066;2023-02-02T04:48:56;5.80;99.90
23347;DHT22;36852;45.466;11.066;2023-02-02T04:51:23;5.80;99.90
23347;DHT22;36852;45.466;11.066;2023-02-02T04:53:51;5.90;99.90
23347;DHT22;36852;45.466;11.066;2023-02-02T04:56:19;5.90;99.90
23347;DHT22;36852;45.466;11.066;2023-02-02T04:58:52;5.90;99.90
23347;DHT22;36852;45.466;11.066;2023-02-02T05:01:20;5.90;99.90
23347;DHT22;36852;45.466;11.066;2023-02-02T05:03:49;5.90;99.90
23347;DHT22;36852;45.466;11.066;2023-02-02T05:06:17;5.90;99.90
23347;DHT22;36852;45.466;11.066;2023-02-02T05:08:46;5.90;99.90
23347;DHT22;36852;45.466;11.066;2023-02-02T05:11:22;5.90;99.90
23347;DHT22;36852;45.466;11.066;2023-02-02T05:13:52;5.90;99.90
23347;DHT22;36852;45.466;11.066;2023-02-02T05:16:21;5.80;99.90
23347;DHT22;36852;45.466;11.066;2023-02-02T05:18:52;5.80;99.90
23347;DHT22;36852;45.466;11.066;2023-02-02T05:21:21;5.80;99.90
23347;DHT22;36852;45.466;11.066;2023-02-02T05:23:51;5.80;99.90
23347;DHT22;36852;45.466;11.066;2023-02-02T05:26:21;5.80;99.90
23347;DHT22;36852;45.466;11.066;2023-02-02T05:28:49;5.80;99.90
23347;DHT22;36852;45.466;11.066;2023-02-02T05:31:18;5.80;99.90
23347;DHT22;36852;45.466;11.066;2023-02-02T05:33:46;5.80;99.90
23347;DHT22;36852;45.466;11.066;2023-02-02T05:36:13;5.80;99.90
23347;DHT22;36852;45.466;11.066;2023-02-02T05:38:41;5.80;99.90
23347;DHT22;36852;45.466;11.066;2023-02-02T05:41:11;5.70;99.90
23347;DHT22;36852;45.466;11.066;2023-02-02T05:43:39;5.70;99.90
23347;DHT22;36852;45.466;11.066;2023-02-02T05:46:07;5.70;99.90
23347;DHT22;36852;45.466;11.066;2023-02-02T05:48:35;5.60;99.90
23347;DHT22;36852;45.466;11.066;2023-02-02T05:51:10;5.60;99.90
23347;DHT22;36852;45.466;11.066;2023-02-02T05:53:36;5.70;99.90
23347;DHT22;36852;45.466;11.066;2023-02-02T05:56:04;5.70;99.90
23347;DHT22;36852;45.466;11.066;2023-02-02T05:58:35;5.60;99.90
23347;DHT22;36852;45.466;11.066;2023-02-02T06:01:03;5.60;99.90
23347;DHT22;36852;45.466;11.066;2023-02-02T06:03:31;5.70;99.90
23347;DHT22;36852;45.466;11.066;2023-02-02T06:05:59;5.60;99.90
23347;DHT22;36852;45.466;11.066;2023-02-02T06:08:28;5.60;99.90
23347;DHT22;36852;45.466;11.066;2023-02-02T06:10:56;5.60;99.90
23347;DHT22;36852;45.466;11.066;2023-02-02T06:13:24;5.60;99.90
23347;DHT22;36852;45.466;11.066;2023-02-02T06:15:51;5.60;99.90
23347;DHT22;36852;45.466;11.066;2023-02-02T06:18:19;5.60;99.90
23347;DHT22;36852;45.466;11.066;2023-02-02T06:20:47;5.60;99.90
23347;DHT22;36852;45.466;11.066;2023-02-02T06:23:15;5.60;99.90
23347;DHT22;36852;45.466;11.066;2023-02-02T06:25:44;5.50;99.90
23347;DHT22;36852;45.466;11.066;2023-02-02T06:28:12;5.50;99.90
23347;DHT22;36852;45.466;11.066;2023-02-02T06:30:40;5.50;99.90
23347;DHT22;36852;45.466;11.066;2023-02-02T06:33:10;5.50;99.90
23347;DHT22;36852;45.466;11.066;2023-02-02T06:35:38;5.50;99.90
23347;DHT22;36852;45.466;11.066;2023-02-02T06:38:06;5.50;99.90
23347;DHT22;36852;45.466;11.066;2023-02-02T06:40:34;5.50;99.90
23347;DHT22;36852;45.466;11.066;2023-02-02T06:43:02;5.50;99.90
23347;DHT22;36852;45.466;11.066;2023-02-02T06:45:29;5.40;99.90
23347;DHT22;36852;45.466;11.066;2023-02-02T06:47:58;5.40;99.90
23347;DHT22;36852;45.466;11.066;2023-02-02T06:50:31;5.40;99.90
23347;DHT22;36852;45.466;11.066;2023-02-02T06:52:59;5.40;99.90
23347;DHT22;36852;45.466;11.066;2023-02-02T06:55:27;5.40;99.90
23347;DHT22;36852;45.466;11.066;2023-02-02T06:57:55;5.40;99.90
23347;DHT22;36852;45.466;11.066;2023-02-02T07:00:24;5.40;99.90
23347;DHT22;36852;45.466;11.066;2023-02-02T07:02:52;5.40;99.90
23347;DHT22;36852;45.466;11.066;2023-02-02T07:05:21;5.30;99.90
23347;DHT22;36852;45.466;11.066;2023-02-02T07:07:50;5.30;99.90
23347;DHT22;36852;45.466;11.066;2023-02-02T07:10:18;5.30;99.90
23347;DHT22;36852;45.466;11.066;2023-02-02T07:12:49;5.30;99.90
23347;DHT22;36852;45.466;11.066;2023-02-02T07:15:17;5.40;99.90
23347;DHT22;36852;45.466;11.066;2023-02-02T07:17:45;5.40;99.90
23347;DHT22;36852;45.466;11.066;2023-02-02T07:20:12;5.40;99.90
23347;DHT22;36852;45.466;11.066;2023-02-02T07:22:40;5.40;99.90
23347;DHT22;36852;45.466;11.066;2023-02-02T07:25:11;5.40;99.90
23347;DHT22;36852;45.466;11.066;2023-02-02T07:27:38;5.40;99.90
23347;DHT22;36852;45.466;11.066;2023-02-02T07:30:07;5.40;99.90
23347;DHT22;36852;45.466;11.066;2023-02-02T07:32:35;5.40;99.90
23347;DHT22;36852;45.466;11.066;2023-02-02T07:35:04;5.40;99.90
23347;DHT22;36852;45.466;11.066;2023-02-02T07:37:31;5.40;99.90
23347;DHT22;36852;45.466;11.066;2023-02-02T07:39:59;5.40;99.90
23347;DHT22;36852;45.466;11.066;2023-02-02T07:42:27;5.40;99.90
23347;DHT22;36852;45.466;11.066;2023-02-02T07:45:15;5.40;99.90
23347;DHT22;36852;45.466;11.066;2023-02-02T07:47:45;5.40;99.90
23347;DHT22;36852;45.466;11.066;2023-02-02T07:53:04;5.50;99.90
23347;DHT22;36852;45.466;11.066;2023-02-02T07:55:31;5.50;99.90
23347;DHT22;36852;45.466;11.066;2023-02-02T07:57:59;5.60;99.90
23347;DHT22;36852;45.466;11.066;2023-02-02T08:00:27;5.60;99.90
23347;DHT22;36852;45.466;11.066;2023-02-02T08:02:55;5.70;99.90
23347;DHT22;36852;45.466;11.066;2023-02-02T08:05:23;5.70;99.90
23347;DHT22;36852;45.466;11.066;2023-02-02T08:07:52;5.80;99.90
23347;DHT22;36852;45.466;11.066;2023-02-02T08:10:19;5.90;99.90
23347;DHT22;36852;45.466;11.066;2023-02-02T08:12:47;5.90;99.90
23347;DHT22;36852;45.466;11.066;2023-02-02T08:15:15;5.90;99.90
23347;DHT22;36852;45.466;11.066;2023-02-02T08:17:44;5.90;99.90
23347;DHT22;36852;45.466;11.066;2023-02-02T08:20:12;6.00;99.90
23347;DHT22;36852;45.466;11.066;2023-02-02T08:25:23;6.10;99.90
23347;DHT22;36852;45.466;11.066;2023-02-02T08:27:53;6.10;99.90
23347;DHT22;36852;45.466;11.066;2023-02-02T08:30:22;6.20;99.90
23347;DHT22;36852;45.466;11.066;2023-02-02T08:32:50;6.20;99.90
23347;DHT22;36852;45.466;11.066;2023-02-02T08:35:18;6.30;99.90
23347;DHT22;36852;45.466;11.066;2023-02-02T08:37:47;6.30;99.90
23347;DHT22;36852;45.466;11.066;2023-02-02T08:40:16;6.30;99.90
23347;DHT22;36852;45.466;11.066;2023-02-02T08:42:45;6.30;99.90
23347;DHT22;36852;45.466;11.066;2023-02-02T08:45:14;6.40;99.90
23347;DHT22;36852;45.466;11.066;2023-02-02T08:47:48;6.50;99.90
23347;DHT22;36852;45.466;11.066;2023-02-02T08:50:16;6.60;99.90
23347;DHT22;36852;45.466;11.066;2023-02-02T08:55:26;6.70;99.90
23347;DHT22;36852;45.466;11.066;2023-02-02T08:57:54;6.80;99.90
23347;DHT22;36852;45.466;11.066;2023-02-02T09:00:22;6.80;99.90
23347;DHT22;36852;45.466;11.066;2023-02-02T09:02:50;6.90;99.90
23347;DHT22;36852;45.466;11.066;2023-02-02T09:05:21;7.10;99.90
23347;DHT22;36852;45.466;11.066;2023-02-02T09:07:50;7.20;99.90
23347;DHT22;36852;45.466;11.066;2023-02-02T09:10:18;7.30;99.90
23347;DHT22;36852;45.466;11.066;2023-02-02T09:12:46;7.40;99.90
23347;DHT22;36852;45.466;11.066;2023-02-02T09:15:14;7.40;99.90
23347;DHT22;36852;45.466;11.066;2023-02-02T09:17:42;7.50;99.90
23347;DHT22;36852;45.466;11.066;2023-02-02T09:20:11;7.60;99.90
23347;DHT22;36852;45.466;11.066;2023-02-02T09:22:41;7.70;99.90
23347;DHT22;36852;45.466;11.066;2023-02-02T09:25:09;7.80;99.90
23347;DHT22;36852;45.466;11.066;2023-02-02T09:27:37;7.90;99.90
23347;DHT22;36852;45.466;11.066;2023-02-02T09:30:08;7.90;99.90
23347;DHT22;36852;45.466;11.066;2023-02-02T09:32:36;8.00;99.90
23347;DHT22;36852;45.466;11.066;2023-02-02T09:35:04;8.10;99.90
23347;DHT22;36852;45.466;11.066;2023-02-02T09:37:33;8.10;99.90
23347;DHT22;36852;45.466;11.066;2023-02-02T09:40:01;8.20;99.90
23347;DHT22;36852;45.466;11.066;2023-02-02T09:45:36;8.30;99.90
23347;DHT22;36852;45.466;11.066;2023-02-02T09:50:51;8.50;99.90
23347;DHT22;36852;45.466;11.066;2023-02-02T09:55:56;8.60;99.90
23347;DHT22;36852;45.466;11.066;2023-02-02T09:58:38;8.60;99.90
23347;DHT22;36852;45.466;11.066;2023-02-02T10:01:03;8.70;99.90
23347;DHT22;36852;45.466;11.066;2023-02-02T10:03:49;8.70;99.90
23347;DHT22;36852;45.466;11.066;2023-02-02T10:06:40;8.80;99.90
23347;DHT22;36852;45.466;11.066;2023-02-02T10:20:50;9.10;99.90
23347;DHT22;36852;45.466;11.066;2023-02-02T10:23:37;9.20;99.90
23347;DHT22;36852;45.466;11.066;2023-02-02T10:28:42;9.30;99.90
23347;DHT22;36852;45.466;11.066;2023-02-02T10:31:27;9.40;99.90
23347;DHT22;36852;45.466;11.066;2023-02-02T10:42:21;9.70;99.90
23347;DHT22;36852;45.466;11.066;2023-02-02T10:44:51;9.80;99.90
23347;DHT22;36852;45.466;11.066;2023-02-02T10:47:28;9.80;99.90
23347;DHT22;36852;45.466;11.066;2023-02-02T10:50:32;9.90;99.90
23347;DHT22;36852;45.466;11.066;2023-02-02T10:52:35;10.00;99.90
23347;DHT22;36852;45.466;11.066;2023-02-02T10:55:20;10.10;99.90
23347;DHT22;36852;45.466;11.066;2023-02-02T11:03:16;10.30;99.90
23347;DHT22;36852;45.466;11.066;2023-02-02T11:05:46;10.40;99.90
23347;DHT22;36852;45.466;11.066;2023-02-02T11:08:44;10.40;99.90
23347;DHT22;36852;45.466;11.066;2023-02-02T11:11:39;10.50;99.90
23347;DHT22;36852;45.466;11.066;2023-02-02T11:14:12;10.60;99.90
23347;DHT22;36852;45.466;11.066;2023-02-02T11:16:43;10.70;99.90
23347;DHT22;36852;45.466;11.066;2023-02-02T11:19:25;10.70;99.90
23347;DHT22;36852;45.466;11.066;2023-02-02T11:22:00;10.80;99.90
23347;DHT22;36852;45.466;11.066;2023-02-02T11:24:33;10.90;99.90
23347;DHT22;36852;45.466;11.066;2023-02-02T11:29:47;11.00;99.50
23347;DHT22;36852;45.466;11.066;2023-02-02T11:34:46;11.10;99.70
23347;DHT22;36852;45.466;11.066;2023-02-02T11:37:20;11.30;99.80
23347;DHT22;36852;45.466;11.066;2023-02-02T11:39:48;11.30;99.90
23347;DHT22;36852;45.466;11.066;2023-02-02T11:42:23;11.40;99.90
23347;DHT22;36852;45.466;11.066;2023-02-02T11:44:54;11.50;99.60
23347;DHT22;36852;45.466;11.066;2023-02-02T11:47:28;11.60;99.60
23347;DHT22;36852;45.466;11.066;2023-02-02T11:49:59;11.60;99.80
23347;DHT22;36852;45.466;11.066;2023-02-02T11:52:32;11.70;99.90
23347;DHT22;36852;45.466;11.066;2023-02-02T11:55:08;11.70;99.70
23347;DHT22;36852;45.466;11.066;2023-02-02T11:57:32;11.70;99.90
23347;DHT22;36852;45.466;11.066;2023-02-02T12:05:31;11.90;99.90
23347;DHT22;36852;45.466;11.066;2023-02-02T12:10:42;12.10;99.90
23347;DHT22;36852;45.466;11.066;2023-02-02T12:13:22;12.20;99.90
23347;DHT22;36852;45.466;11.066;2023-02-02T12:15:51;12.40;99.90
23347;DHT22;36852;45.466;11.066;2023-02-02T12:30:14;13.20;99.90
23347;DHT22;36852;45.466;11.066;2023-02-02T12:49:26;15.40;97.80
23347;DHT22;36852;45.466;11.066;2023-02-02T12:51:59;15.60;98.80
23347;DHT22;36852;45.466;11.066;2023-02-02T12:57:16;16.20;93.80
23347;DHT22;36852;45.466;11.066;2023-02-02T13:02:37;16.80;95.90
23347;DHT22;36852;45.466;11.066;2023-02-02T13:07:55;16.50;73.20
23347;DHT22;36852;45.466;11.066;2023-02-02T13:10:33;16.50;72.30
23347;DHT22;36852;45.466;11.066;2023-02-02T13:13:14;16.60;72.30
23347;DHT22;36852;45.466;11.066;2023-02-02T13:15:48;16.60;61.70
23347;DHT22;36852;45.466;11.066;2023-02-02T13:18:34;16.60;59.90
23347;DHT22;36852;45.466;11.066;2023-02-02T13:21:05;16.70;59.40
23347;DHT22;36852;45.466;11.066;2023-02-02T13:24:00;16.70;55.60
23347;DHT22;36852;45.466;11.066;2023-02-02T13:26:28;16.60;56.50
23347;DHT22;36852;45.466;11.066;2023-02-02T13:28:52;16.70;55.50
23347;DHT22;36852;45.466;11.066;2023-02-02T13:31:30;16.80;56.60
23347;DHT22;36852;45.466;11.066;2023-02-02T13:36:35;16.80;56.70
23347;DHT22;36852;45.466;11.066;2023-02-02T13:39:17;17.00;56.20
23347;DHT22;36852;45.466;11.066;2023-02-02T13:41:46;17.10;55.80
23347;DHT22;36852;45.466;11.066;2023-02-02T13:44:28;17.20;54.50
23347;DHT22;36852;45.466;11.066;2023-02-02T13:46:57;17.00;54.20
23347;DHT22;36852;45.466;11.066;2023-02-02T13:49:28;17.00;55.00
23347;DHT22;36852;45.466;11.066;2023-02-02T13:54:53;17.70;53.60
23347;DHT22;36852;45.466;11.066;2023-02-02T13:57:53;17.90;51.30
23347;DHT22;36852;45.466;11.066;2023-02-02T14:00:47;18.40;50.70
23347;DHT22;36852;45.466;11.066;2023-02-02T14:06:16;19.50;48.50
23347;DHT22;36852;45.466;11.066;2023-02-02T14:08:55;20.20;47.30
23347;DHT22;36852;45.466;11.066;2023-02-02T14:13:58;21.00;46.20
23347;DHT22;36852;45.466;11.066;2023-02-02T14:16:48;21.70;44.70
23347;DHT22;36852;45.466;11.066;2023-02-02T14:24:45;24.20;39.40
23347;DHT22;36852;45.466;11.066;2023-02-02T14:32:28;26.60;32.90
23347;DHT22;36852;45.466;11.066;2023-02-02T14:38:07;26.60;30.90
23347;DHT22;36852;45.466;11.066;2023-02-02T14:43:26;26.70;29.80
23347;DHT22;36852;45.466;11.066;2023-02-02T14:48:45;27.40;31.50
23347;DHT22;36852;45.466;11.066;2023-02-02T14:51:20;28.00;32.90
23347;DHT22;36852;45.466;11.066;2023-02-02T14:53:51;28.60;32.60
23347;DHT22;36852;45.466;11.066;2023-02-02T14:56:21;29.30;32.60
23347;DHT22;36852;45.466;11.066;2023-02-02T14:58:59;29.80;31.90
23347;DHT22;36852;45.466;11.066;2023-02-02T15:01:30;29.90;32.00
23347;DHT22;36852;45.466;11.066;2023-02-02T15:06:47;30.90;31.00
23347;DHT22;36852;45.466;11.066;2023-02-02T15:17:47;30.40;30.70
23347;DHT22;36852;45.466;11.066;2023-02-02T15:20:41;29.40;31.60
23347;DHT22;36852;45.466;11.066;2023-02-02T15:26:06;28.30;33.40
23347;DHT22;36852;45.466;11.066;2023-02-02T15:29:02;28.10;33.90
23347;DHT22;36852;45.466;11.066;2023-02-02T15:31:42;28.20;33.60
23347;DHT22;36852;45.466;11.066;2023-02-02T15:34:19;28.40;33.30
23347;DHT22;36852;45.466;11.066;2023-02-02T15:36:51;28.30;33.80
23347;DHT22;36852;45.466;11.066;2023-02-02T15:41:59;27.50;34.60
23347;DHT22;36852;45.466;11.066;2023-02-02T15:44:46;27.10;35.70
23347;DHT22;36852;45.466;11.066;2023-02-02T15:47:17;26.90;35.70
23347;DHT22;36852;45.466;11.066;2023-02-02T15:49:48;26.40;36.70
23347;DHT22;36852;45.466;11.066;2023-02-02T15:52:23;25.80;37.40
23347;DHT22;36852;45.466;11.066;2023-02-02T15:54:54;25.30;38.20
23347;DHT22;36852;45.466;11.066;2023-02-02T15:57:31;24.60;39.40
23347;DHT22;36852;45.466;11.066;2023-02-02T16:00:23;23.90;40.60
23347;DHT22;36852;45.466;11.066;2023-02-02T16:02:41;23.20;42.10
23347;DHT22;36852;45.466;11.066;2023-02-02T16:05:46;22.70;43.00
23347;DHT22;36852;45.466;11.066;2023-02-02T16:07:54;22.40;43.20
23347;DHT22;36852;45.466;11.066;2023-02-02T16:10:26;21.80;44.00
23347;DHT22;36852;45.466;11.066;2023-02-02T16:12:54;21.10;45.20
23347;DHT22;36852;45.466;11.066;2023-02-02T16:15:25;20.30;45.40
23347;DHT22;36852;45.466;11.066;2023-02-02T16:18:04;19.60;45.90
23347;DHT22;36852;45.466;11.066;2023-02-02T16:20:36;18.90;46.70
23347;DHT22;36852;45.466;11.066;2023-02-02T16:23:09;18.30;47.80
23347;DHT22;36852;45.466;11.066;2023-02-02T16:25:46;17.70;48.30
23347;DHT22;36852;45.466;11.066;2023-02-02T16:28:10;17.20;49.20
23347;DHT22;36852;45.466;11.066;2023-02-02T16:30:39;16.80;50.60
23347;DHT22;36852;45.466;11.066;2023-02-02T16:33:27;16.40;51.10
23347;DHT22;36852;45.466;11.066;2023-02-02T16:35:57;16.20;52.20
23347;DHT22;36852;45.466;11.066;2023-02-02T16:38:32;15.90;53.10
23347;DHT22;36852;45.466;11.066;2023-02-02T16:41:08;15.70;53.00
23347;DHT22;36852;45.466;11.066;2023-02-02T16:43:39;15.40;53.60
23347;DHT22;36852;45.466;11.066;2023-02-02T16:46:12;15.20;54.00
23347;DHT22;36852;45.466;11.066;2023-02-02T16:48:43;15.10;54.90
23347;DHT22;36852;45.466;11.066;2023-02-02T16:53:47;14.80;55.50
23347;DHT22;36852;45.466;11.066;2023-02-02T16:56:34;14.60;55.80
23347;DHT22;36852;45.466;11.066;2023-02-02T17:01:51;14.30;56.00
23347;DHT22;36852;45.466;11.066;2023-02-02T17:04:25;14.20;56.00
23347;DHT22;36852;45.466;11.066;2023-02-02T17:06:54;14.10;56.60
23347;DHT22;36852;45.466;11.066;2023-02-02T17:09:35;13.90;57.00
23347;DHT22;36852;45.466;11.066;2023-02-02T17:14:57;13.80;58.50
23347;DHT22;36852;45.466;11.066;2023-02-02T17:17:30;13.70;59.10
23347;DHT22;36852;45.466;11.066;2023-02-02T17:19:58;13.60;58.70
23347;DHT22;36852;45.466;11.066;2023-02-02T17:22:26;13.50;59.20
23347;DHT22;36852;45.466;11.066;2023-02-02T17:24:54;13.40;59.50
23347;DHT22;36852;45.466;11.066;2023-02-02T17:27:25;13.40;60.20
23347;DHT22;36852;45.466;11.066;2023-02-02T17:29:55;13.40;60.70
23347;DHT22;36852;45.466;11.066;2023-02-02T17:32:23;13.30;60.80
23347;DHT22;36852;45.466;11.066;2023-02-02T17:34:51;13.20;61.50
23347;DHT22;36852;45.466;11.066;2023-02-02T17:37:22;13.20;63.10
23347;DHT22;36852;45.466;11.066;2023-02-02T17:39:50;13.10;64.40
23347;DHT22;36852;45.466;11.066;2023-02-02T17:42:26;13.00;65.50
23347;DHT22;36852;45.466;11.066;2023-02-02T17:44:54;12.90;66.50
23347;DHT22;36852;45.466;11.066;2023-02-02T17:47:22;12.80;67.30
23347;DHT22;36852;45.466;11.066;2023-02-02T17:49:52;12.70;67.60
23347;DHT22;36852;45.466;11.066;2023-02-02T17:52:20;12.60;68.40
23347;DHT22;36852;45.466;11.066;2023-02-02T17:54:48;12.60;69.90
23347;DHT22;36852;45.466;11.066;2023-02-02T17:57:17;12.50;69.60
23347;DHT22;36852;45.466;11.066;2023-02-02T17:59:46;12.40;69.60
23347;DHT22;36852;45.466;11.066;2023-02-02T18:02:16;12.30;69.70
23347;DHT22;36852;45.466;11.066;2023-02-02T18:04:44;12.20;71.20
23347;DHT22;36852;45.466;11.066;2023-02-02T18:07:12;12.10;70.20
23347;DHT22;36852;45.466;11.066;2023-02-02T18:09:40;12.10;69.40
23347;DHT22;36852;45.466;11.066;2023-02-02T18:12:07;12.10;69.40
23347;DHT22;36852;45.466;11.066;2023-02-02T18:14:35;12.00;68.30
23347;DHT22;36852;45.466;11.066;2023-02-02T18:17:04;12.00;68.40
23347;DHT22;36852;45.466;11.066;2023-02-02T18:19:32;12.00;68.80
23347;DHT22;36852;45.466;11.066;2023-02-02T18:22:00;11.80;69.30
23347;DHT22;36852;45.466;11.066;2023-02-02T18:24:28;11.80;68.80
23347;DHT22;36852;45.466;11.066;2023-02-02T18:29:38;11.70;69.30
23347;DHT22;36852;45.466;11.066;2023-02-02T18:32:06;11.70;68.90
23347;DHT22;36852;45.466;11.066;2023-02-02T18:34:40;11.60;68.60
23347;DHT22;36852;45.466;11.066;2023-02-02T18:37:08;11.50;69.10
23347;DHT22;36852;45.466;11.066;2023-02-02T18:39:36;11.50;70.60
23347;DHT22;36852;45.466;11.066;2023-02-02T18:42:04;11.40;71.30
23347;DHT22;36852;45.466;11.066;2023-02-02T18:44:32;11.40;71.70
23347;DHT22;36852;45.466;11.066;2023-02-02T18:47:01;11.40;72.00